sensor_id;sensor_type;location;lat;lon;timestamp;temperature;humidity
19256;DHT22;9762;52.490;13.410;2023-01-31T00:01:07;6.80;96.50
19256;DHT22;9762;52.490;13.410;2023-01-31T00:03:32;6.80;96.50
19256;DHT22;9762;52.490;13.410;2023-01-31T00:08:40;6.80;96.60
19256;DHT22;9762;52.490;13.410;2023-01-31T00:11:06;6.80;96.60
19256;DHT22;9762;52.490;13.410;2023-01-31T00:13:32;6.80;96.50
19256;DHT22;9762;52.490;13.410;2023-01-31T00:15:58;6.80;96.50
19256;DHT22;9762;52.490;13.410;2023-01-31T00:18:23;6.80;96.60
19256;DHT22;9762;52.490;13.410;2023-01-31T00:20:49;6.70;96.70
19256;DHT22;9762;52.490;13.410;2023-01-31T00:23:15;6.70;96.80
19256;DHT22;9762;52.490;13.410;2023-01-31T00:25:40;6.70;97.00
19256;DHT22;9762;52.490;13.410;2023-01-31T00:28:06;6.70;96.90
19256;DHT22;9762;52.490;13.410;2023-01-31T00:30:32;6.70;97.00
19256;DHT22;9762;52.490;13.410;2023-01-31T00:32:57;6.70;97.00
19256;DHT22;9762;52.490;13.410;2023-01-31T00:35:23;6.70;96.90
19256;DHT22;9762;52.490;13.410;2023-01-31T00:37:48;6.60;97.10
19256;DHT22;9762;52.490;13.410;2023-01-31T00:40:14;6.60;97.00
19256;DHT22;9762;52.490;13.410;2023-01-31T00:42:40;6.60;97.00
19256;DHT22;9762;52.490;13.410;2023-01-31T00:45:06;6.60;96.90
19256;DHT22;9762;52.490;13.410;2023-01-31T00:47:31;6.60;97.00
19256;DHT22;9762;52.490;13.410;2023-01-31T00:49:57;6.60;97.00
19256;DHT22;9762;52.490;13.410;2023-01-31T00:52:23;6.60;97.00
19256;DHT22;9762;52.490;13.410;2023-01-31T00:54:48;6.60;97.00
19256;DHT22;9762;52.490;13.410;2023-01-31T00:57:14;6.60;97.10
19256;DHT22;9762;52.490;13.410;2023-01-31T00:59:39;6.50;97.10
19256;DHT22;9762;52.490;13.410;2023-01-31T01:02:05;6.60;97.20
19256;DHT22;9762;52.490;13.410;2023-01-31T01:04:30;6.60;97.10
19256;DHT22;9762;52.490;13.410;2023-01-31T01:06:56;6.60;97.00
19256;DHT22;9762;52.490;13.410;2023-01-31T01:09:22;6.70;97.00
19256;DHT22;9762;52.490;13.410;2023-01-31T01:11:48;6.70;97.00
19256;DHT22;9762;52.490;13.410;2023-01-31T01:14:14;6.70;97.10
19256;DHT22;9762;52.490;13.410;2023-01-31T01:16:40;6.70;97.00
19256;DHT22;9762;52.490;13.410;2023-01-31T01:19:10;6.80;96.90
19256;DHT22;9762;52.490;13.410;2023-01-31T01:21:36;6.80;96.90
19256;DHT22;9762;52.490;13.410;2023-01-31T01:24:10;6.80;96.70
19256;DHT22;9762;52.490;13.410;2023-01-31T01:26:36;6.80;96.70
19256;DHT22;9762;52.490;13.410;2023-01-31T01:29:02;6.90;96.70
19256;DHT22;9762;52.490;13.410;2023-01-31T01:31:29;6.90;96.70
19256;DHT22;9762;52.490;13.410;2023-01-31T01:34:17;6.80;96.60
19256;DHT22;9762;52.490;13.410;2023-01-31T01:36:42;6.90;96.60
19256;DHT22;9762;52.490;13.410;2023-01-31T01:39:10;6.90;96.60
19256;DHT22;9762;52.490;13.410;2023-01-31T01:41:38;6.90;96.60
19256;DHT22;9762;52.490;13.410;2023-01-31T01:49:40;7.00;96.40
19256;DHT22;9762;52.490;13.410;2023-01-31T01:52:08;7.00;96.40
19256;DHT22;9762;52.490;13.410;2023-01-31T01:54:43;7.00;96.40
19256;DHT22;9762;52.490;13.410;2023-01-31T01:57:10;7.00;96.30
19256;DHT22;9762;52.490;13.410;2023-01-31T01:59:47;7.00;96.60
19256;DHT22;9762;52.490;13.410;2023-01-31T02:02:15;7.10;96.50
19256;DHT22;9762;52.490;13.410;2023-01-31T02:04:42;7.10;96.30
19256;DHT22;9762;52.490;13.410;2023-01-31T02:07:09;7.00;96.20
19256;DHT22;9762;52.490;13.410;2023-01-31T02:12:22;7.00;96.40
19256;DHT22;9762;52.490;13.410;2023-01-31T02:14:48;7.00;96.50
19256;DHT22;9762;52.490;13.410;2023-01-31T02:17:16;7.00;96.60
19256;DHT22;9762;52.490;13.410;2023-01-31T02:33:35;7.00;97.00
19256;DHT22;9762;52.490;13.410;2023-01-31T02:36:30;7.00;96.70
19256;DHT22;9762;52.490;13.410;2023-01-31T02:42:04;7.10;96.50
19256;DHT22;9762;52.490;13.410;2023-01-31T02:44:37;7.10;96.40
19256;DHT22;9762;52.490;13.410;2023-01-31T02:47:30;7.00;96.30
19256;DHT22;9762;52.490;13.410;2023-01-31T02:55:20;7.10;96.30
19256;DHT22;9762;52.490;13.410;2023-01-31T02:58:07;7.10;96.30
19256;DHT22;9762;52.490;13.410;2023-01-31T03:00:35;7.10;96.30
19256;DHT22;9762;52.490;13.410;2023-01-31T03:03:07;7.00;96.30
19256;DHT22;9762;52.490;13.410;2023-01-31T03:05:37;7.00;96.30
19256;DHT22;9762;52.490;13.410;2023-01-31T03:08:04;7.00;96.40
19256;DHT22;9762;52.490;13.410;2023-01-31T03:13:26;7.00;96.50
19256;DHT22;9762;52.490;13.410;2023-01-31T03:16:00;6.90;96.60
19256;DHT22;9762;52.490;13.410;2023-01-31T03:21:51;6.70;97.00
19256;DHT22;9762;52.490;13.410;2023-01-31T03:24:20;6.70;97.20
19256;DHT22;9762;52.490;13.410;2023-01-31T03:26:51;6.70;97.20
19256;DHT22;9762;52.490;13.410;2023-01-31T03:29:18;6.60;97.60
19256;DHT22;9762;52.490;13.410;2023-01-31T03:31:58;6.60;97.40
19256;DHT22;9762;52.490;13.410;2023-01-31T03:34:25;6.50;97.50
19256;DHT22;9762;52.490;13.410;2023-01-31T03:39:55;6.40;97.80
19256;DHT22;9762;52.490;13.410;2023-01-31T03:42:30;6.40;97.80
19256;DHT22;9762;52.490;13.410;2023-01-31T03:45:12;6.40;97.90
19256;DHT22;9762;52.490;13.410;2023-01-31T03:47:46;6.40;98.00
19256;DHT22;9762;52.490;13.410;2023-01-31T03:50:26;6.30;98.00
19256;DHT22;9762;52.490;13.410;2023-01-31T03:53:24;6.40;98.10
19256;DHT22;9762;52.490;13.410;2023-01-31T03:56:09;6.30;98.20
19256;DHT22;9762;52.490;13.410;2023-01-31T03:58:41;6.30;98.20
19256;DHT22;9762;52.490;13.410;2023-01-31T04:01:08;6.30;98.10
19256;DHT22;9762;52.490;13.410;2023-01-31T04:03:58;6.30;98.20
19256;DHT22;9762;52.490;13.410;2023-01-31T04:06:26;6.30;98.30
19256;DHT22;9762;52.490;13.410;2023-01-31T04:08:52;6.30;98.30
19256;DHT22;9762;52.490;13.410;2023-01-31T04:11:20;6.20;98.30
19256;DHT22;9762;52.490;13.410;2023-01-31T04:13:46;6.20;98.40
19256;DHT22;9762;52.490;13.410;2023-01-31T04:16:12;6.20;98.50
19256;DHT22;9762;52.490;13.410;2023-01-31T04:18:37;6.20;98.60
19256;DHT22;9762;52.490;13.410;2023-01-31T04:21:03;6.20;98.60
19256;DHT22;9762;52.490;13.410;2023-01-31T04:23:29;6.20;98.70
19256;DHT22;9762;52.490;13.410;2023-01-31T04:25:54;6.20;98.80
19256;DHT22;9762;52.490;13.410;2023-01-31T04:28:21;6.20;98.80
19256;DHT22;9762;52.490;13.410;2023-01-31T04:30:52;6.30;98.80
19256;DHT22;9762;52.490;13.410;2023-01-31T04:33:18;6.30;98.80
19256;DHT22;9762;52.490;13.410;2023-01-31T04:35:44;6.20;98.80
19256;DHT22;9762;52.490;13.410;2023-01-31T04:38:09;6.30;98.90
19256;DHT22;9762;52.490;13.410;2023-01-31T04:40:35;6.30;99.00
19256;DHT22;9762;52.490;13.410;2023-01-31T04:43:01;6.30;99.00
19256;DHT22;9762;52.490;13.410;2023-01-31T04:45:26;6.30;98.90
19256;DHT22;9762;52.490;13.410;2023-01-31T04:47:52;6.30;98.90
19256;DHT22;9762;52.490;13.410;2023-01-31T04:50:18;6.40;99.00
19256;DHT22;9762;52.490;13.410;2023-01-31T04:52:43;6.40;99.00
19256;DHT22;9762;52.490;13.410;2023-01-31T04:55:09;6.40;98.90
19256;DHT22;9762;52.490;13.410;2023-01-31T04:57:34;6.40;98.90
19256;DHT22;9762;52.490;13.410;2023-01-31T05:00:00;6.40;98.80
19256;DHT22;9762;52.490;13.410;2023-01-31T05:02:26;6.40;98.90
19256;DHT22;9762;52.490;13.410;2023-01-31T05:04:51;6.40;99.10
19256;DHT22;9762;52.490;13.410;2023-01-31T05:07:17;6.30;99.10
19256;DHT22;9762;52.490;13.410;2023-01-31T05:09:42;6.30;99.20
19256;DHT22;9762;52.490;13.410;2023-01-31T05:12:08;6.30;99.30
19256;DHT22;9762;52.490;13.410;2023-01-31T05:14:34;6.30;99.30
19256;DHT22;9762;52.490;13.410;2023-01-31T05:17:00;6.30;99.30
19256;DHT22;9762;52.490;13.410;2023-01-31T05:19:26;6.40;99.30
19256;DHT22;9762;52.490;13.410;2023-01-31T05:21:52;6.40;99.30
19256;DHT22;9762;52.490;13.410;2023-01-31T05:24:24;6.40;99.30
19256;DHT22;9762;52.490;13.410;2023-01-31T05:26:50;6.40;99.50
19256;DHT22;9762;52.490;13.410;2023-01-31T05:29:18;6.40;99.50
19256;DHT22;9762;52.490;13.410;2023-01-31T05:31:44;6.40;99.60
19256;DHT22;9762;52.490;13.410;2023-01-31T05:34:10;6.40;99.60
19256;DHT22;9762;52.490;13.410;2023-01-31T05:36:40;6.40;99.60
19256;DHT22;9762;52.490;13.410;2023-01-31T05:39:06;6.40;99.70
19256;DHT22;9762;52.490;13.410;2023-01-31T05:41:32;6.50;99.70
19256;DHT22;9762;52.490;13.410;2023-01-31T05:43:58;6.50;99.70
19256;DHT22;9762;52.490;13.410;2023-01-31T05:46:23;6.60;99.70
19256;DHT22;9762;52.490;13.410;2023-01-31T05:48:49;6.50;99.60
19256;DHT22;9762;52.490;13.410;2023-01-31T05:51:14;6.60;99.50
19256;DHT22;9762;52.490;13.410;2023-01-31T05:53:40;6.60;99.50
19256;DHT22;9762;52.490;13.410;2023-01-31T05:56:06;6.60;99.50
19256;DHT22;9762;52.490;13.410;2023-01-31T05:58:31;6.70;99.50
19256;DHT22;9762;52.490;13.410;2023-01-31T06:00:57;6.70;99.50
19256;DHT22;9762;52.490;13.410;2023-01-31T06:03:22;6.70;99.60
19256;DHT22;9762;52.490;13.410;2023-01-31T06:05:48;6.70;99.70
19256;DHT22;9762;52.490;13.410;2023-01-31T06:08:14;6.70;99.90
19256;DHT22;9762;52.490;13.410;2023-01-31T06:10:39;6.70;99.70
19256;DHT22;9762;52.490;13.410;2023-01-31T06:13:05;6.80;99.80
19256;DHT22;9762;52.490;13.410;2023-01-31T06:16:09;6.80;99.70
19256;DHT22;9762;52.490;13.410;2023-01-31T06:18:35;6.80;99.80
19256;DHT22;9762;52.490;13.410;2023-01-31T06:21:00;6.80;99.90
19256;DHT22;9762;52.490;13.410;2023-01-31T06:23:26;6.80;99.80
19256;DHT22;9762;52.490;13.410;2023-01-31T06:25:53;6.80;99.70
19256;DHT22;9762;52.490;13.410;2023-01-31T06:28:19;6.80;99.80
19256;DHT22;9762;52.490;13.410;2023-01-31T06:30:45;6.80;99.80
19256;DHT22;9762;52.490;13.410;2023-01-31T06:33:11;6.90;99.90
19256;DHT22;9762;52.490;13.410;2023-01-31T06:35:37;6.90;99.90
19256;DHT22;9762;52.490;13.410;2023-01-31T06:38:03;6.90;99.70
19256;DHT22;9762;52.490;13.410;2023-01-31T06:40:29;6.90;99.70
19256;DHT22;9762;52.490;13.410;2023-01-31T06:42:55;6.90;99.80
19256;DHT22;9762;52.490;13.410;2023-01-31T06:45:21;6.90;99.80
19256;DHT22;9762;52.490;13.410;2023-01-31T06:47:46;6.90;99.80
19256;DHT22;9762;52.490;13.410;2023-01-31T06:50:12;6.90;99.90
19256;DHT22;9762;52.490;13.410;2023-01-31T06:52:39;7.00;99.80
19256;DHT22;9762;52.490;13.410;2023-01-31T06:55:05;7.00;99.90
19256;DHT22;9762;52.490;13.410;2023-01-31T06:57:31;7.00;99.90
19256;DHT22;9762;52.490;13.410;2023-01-31T06:59:56;7.10;99.90
19256;DHT22;9762;52.490;13.410;2023-01-31T07:02:22;7.10;99.90
19256;DHT22;9762;52.490;13.410;2023-01-31T07:04:48;7.10;99.90
19256;DHT22;9762;52.490;13.410;2023-01-31T07:07:13;7.00;99.90
19256;DHT22;9762;52.490;13.410;2023-01-31T07:09:39;7.00;99.90
19256;DHT22;9762;52.490;13.410;2023-01-31T07:12:04;7.00;99.90
19256;DHT22;9762;52.490;13.410;2023-01-31T07:14:30;7.10;99.90
19256;DHT22;9762;52.490;13.410;2023-01-31T07:16:55;7.00;99.90
19256;DHT22;9762;52.490;13.410;2023-01-31T07:19:21;7.10;99.90
19256;DHT22;9762;52.490;13.410;2023-01-31T07:21:47;7.10;99.90
19256;DHT22;9762;52.490;13.410;2023-01-31T07:24:14;7.10;99.90
19256;DHT22;9762;52.490;13.410;2023-01-31T07:26:40;7.10;99.90
19256;DHT22;9762;52.490;13.410;2023-01-31T07:29:05;7.20;99.90
19256;DHT22;9762;52.490;13.410;2023-01-31T07:31:31;7.20;99.90
19256;DHT22;9762;52.490;13.410;2023-01-31T07:33:57;7.20;99.90
19256;DHT22;9762;52.490;13.410;2023-01-31T07:36:22;7.20;99.90
19256;DHT22;9762;52.490;13.410;2023-01-31T07:38:55;7.10;99.90
19256;DHT22;9762;52.490;13.410;2023-01-31T07:41:23;7.20;99.90
19256;DHT22;9762;52.490;13.410;2023-01-31T07:43:49;7.20;99.90
19256;DHT22;9762;52.490;13.410;2023-01-31T07:46:15;7.30;99.90
19256;DHT22;9762;52.490;13.410;2023-01-31T07:48:41;7.30;99.90
19256;DHT22;9762;52.490;13.410;2023-01-31T07:51:07;7.30;99.90
19256;DHT22;9762;52.490;13.410;2023-01-31T07:53:35;7.20;99.90
19256;DHT22;9762;52.490;13.410;2023-01-31T07:56:09;7.30;99.90
19256;DHT22;9762;52.490;13.410;2023-01-31T07:58:35;7.30;99.90
19256;DHT22;9762;52.490;13.410;2023-01-31T08:01:02;7.40;99.90
19256;DHT22;9762;52.490;13.410;2023-01-31T08:03:46;7.40;99.90
19256;DHT22;9762;52.490;13.410;2023-01-31T08:06:12;7.40;99.90
19256;DHT22;9762;52.490;13.410;2023-01-31T08:08:39;7.40;99.90
19256;DHT22;9762;52.490;13.410;2023-01-31T08:11:05;7.40;99.90
19256;DHT22;9762;52.490;13.410;2023-01-31T08:13:32;7.40;99.90
19256;DHT22;9762;52.490;13.410;2023-01-31T08:15:58;7.50;99.90
19256;DHT22;9762;52.490;13.410;2023-01-31T08:18:24;7.50;99.90
19256;DHT22;9762;52.490;13.410;2023-01-31T08:20:50;7.50;99.90
19256;DHT22;9762;52.490;13.410;2023-01-31T08:23:15;7.50;99.90
19256;DHT22;9762;52.490;13.410;2023-01-31T08:25:41;7.40;99.90
19256;DHT22;9762;52.490;13.410;2023-01-31T08:28:07;7.40;99.90
19256;DHT22;9762;52.490;13.410;2023-01-31T08:30:33;7.40;99.90
19256;DHT22;9762;52.490;13.410;2023-01-31T08:32:59;7.40;99.90
19256;DHT22;9762;52.490;13.410;2023-01-31T08:35:25;7.40;99.90
19256;DHT22;9762;52.490;13.410;2023-01-31T08:37:51;7.40;99.90
19256;DHT22;9762;52.490;13.410;2023-01-31T08:40:17;7.50;99.90
19256;DHT22;9762;52.490;13.410;2023-01-31T08:42:42;7.60;99.90
19256;DHT22;9762;52.490;13.410;2023-01-31T08:45:09;7.60;99.90
19256;DHT22;9762;52.490;13.410;2023-01-31T08:47:34;7.50;99.90
19256;DHT22;9762;52.490;13.410;2023-01-31T08:50:01;7.60;99.90
19256;DHT22;9762;52.490;13.410;2023-01-31T08:52:26;7.60;99.90
19256;DHT22;9762;52.490;13.410;2023-01-31T08:54:52;7.60;99.90
19256;DHT22;9762;52.490;13.410;2023-01-31T08:57:18;7.70;99.90
19256;DHT22;9762;52.490;13.410;2023-01-31T08:59:45;7.70;99.90
19256;DHT22;9762;52.490;13.410;2023-01-31T09:02:10;7.70;99.90
19256;DHT22;9762;52.490;13.410;2023-01-31T09:04:36;7.80;99.90
19256;DHT22;9762;52.490;13.410;2023-01-31T09:07:02;7.80;99.90
19256;DHT22;9762;52.490;13.410;2023-01-31T09:09:27;7.80;99.90
19256;DHT22;9762;52.490;13.410;2023-01-31T09:11:53;7.80;99.90
19256;DHT22;9762;52.490;13.410;2023-01-31T09:14:18;7.90;99.90
19256;DHT22;9762;52.490;13.410;2023-01-31T09:16:44;7.80;99.90
19256;DHT22;9762;52.490;13.410;2023-01-31T09:19:12;7.90;99.90
19256;DHT22;9762;52.490;13.410;2023-01-31T09:21:38;7.80;99.90
19256;DHT22;9762;52.490;13.410;2023-01-31T09:24:04;7.80;99.90
19256;DHT22;9762;52.490;13.410;2023-01-31T09:26:30;7.80;99.90
19256;DHT22;9762;52.490;13.410;2023-01-31T09:28:57;7.90;99.90
19256;DHT22;9762;52.490;13.410;2023-01-31T09:31:23;7.90;99.90
19256;DHT22;9762;52.490;13.410;2023-01-31T09:33:49;8.00;99.90
19256;DHT22;9762;52.490;13.410;2023-01-31T09:36:18;8.00;99.90
19256;DHT22;9762;52.490;13.410;2023-01-31T09:38:44;8.10;99.90
19256;DHT22;9762;52.490;13.410;2023-01-31T09:41:32;8.20;99.90
19256;DHT22;9762;52.490;13.410;2023-01-31T09:44:14;8.30;99.90
19256;DHT22;9762;52.490;13.410;2023-01-31T09:49:31;8.30;99.50
19256;DHT22;9762;52.490;13.410;2023-01-31T09:52:00;8.30;99.40
19256;DHT22;9762;52.490;13.410;2023-01-31T09:54:37;8.20;99.50
19256;DHT22;9762;52.490;13.410;2023-01-31T10:00:06;8.30;99.70
19256;DHT22;9762;52.490;13.410;2023-01-31T10:05:21;8.50;99.30
19256;DHT22;9762;52.490;13.410;2023-01-31T10:10:47;8.50;99.00
19256;DHT22;9762;52.490;13.410;2023-01-31T10:13:37;8.50;98.80
19256;DHT22;9762;52.490;13.410;2023-01-31T10:16:14;8.60;99.10
19256;DHT22;9762;52.490;13.410;2023-01-31T10:18:48;8.60;98.70
19256;DHT22;9762;52.490;13.410;2023-01-31T10:21:17;8.60;98.60
19256;DHT22;9762;52.490;13.410;2023-01-31T10:23:45;8.70;98.60
19256;DHT22;9762;52.490;13.410;2023-01-31T10:26:41;8.70;98.50
19256;DHT22;9762;52.490;13.410;2023-01-31T10:29:28;8.60;98.30
19256;DHT22;9762;52.490;13.410;2023-01-31T10:32:01;8.60;98.50
19256;DHT22;9762;52.490;13.410;2023-01-31T10:39:33;8.50;98.80
19256;DHT22;9762;52.490;13.410;2023-01-31T10:42:25;8.50;99.30
19256;DHT22;9762;52.490;13.410;2023-01-31T10:45:15;8.50;99.60
19256;DHT22;9762;52.490;13.410;2023-01-31T10:47:52;8.40;99.80
19256;DHT22;9762;52.490;13.410;2023-01-31T10:53:12;8.40;99.90
19256;DHT22;9762;52.490;13.410;2023-01-31T10:56:03;8.50;99.90
19256;DHT22;9762;52.490;13.410;2023-01-31T10:58:30;8.40;99.70
19256;DHT22;9762;52.490;13.410;2023-01-31T11:00:56;8.40;99.90
19256;DHT22;9762;52.490;13.410;2023-01-31T11:03:22;8.40;99.80
19256;DHT22;9762;52.490;13.410;2023-01-31T11:05:51;8.40;99.70
19256;DHT22;9762;52.490;13.410;2023-01-31T11:10:51;8.40;99.70
19256;DHT22;9762;52.490;13.410;2023-01-31T11:13:18;8.50;99.70
19256;DHT22;9762;52.490;13.410;2023-01-31T11:15:44;8.50;99.60
19256;DHT22;9762;52.490;13.410;2023-01-31T11:18:31;8.60;99.60
19256;DHT22;9762;52.490;13.410;2023-01-31T11:20:59;8.60;99.40
19256;DHT22;9762;52.490;13.410;2023-01-31T11:23:28;8.60;99.60
19256;DHT22;9762;52.490;13.410;2023-01-31T11:25:55;8.60;99.20
19256;DHT22;9762;52.490;13.410;2023-01-31T11:28:37;8.60;99.30
19256;DHT22;9762;52.490;13.410;2023-01-31T11:31:15;8.60;99.40
19256;DHT22;9762;52.490;13.410;2023-01-31T11:34:18;8.60;99.50
19256;DHT22;9762;52.490;13.410;2023-01-31T11:36:44;8.70;99.60
19256;DHT22;9762;52.490;13.410;2023-01-31T11:39:30;8.70;99.80
19256;DHT22;9762;52.490;13.410;2023-01-31T11:42:03;8.70;99.90
19256;DHT22;9762;52.490;13.410;2023-01-31T11:44:29;8.70;99.90
19256;DHT22;9762;52.490;13.410;2023-01-31T11:47:03;8.70;99.90
19256;DHT22;9762;52.490;13.410;2023-01-31T11:49:41;8.70;99.90
19256;DHT22;9762;52.490;13.410;2023-01-31T11:52:16;8.70;99.90
19256;DHT22;9762;52.490;13.410;2023-01-31T11:54:48;8.70;99.90
19256;DHT22;9762;52.490;13.410;2023-01-31T11:57:18;8.70;99.90
19256;DHT22;9762;52.490;13.410;2023-01-31T11:59:48;8.80;99.90
19256;DHT22;9762;52.490;13.410;2023-01-31T12:02:39;8.80;99.90
19256;DHT22;9762;52.490;13.410;2023-01-31T12:05:16;8.80;99.90
19256;DHT22;9762;52.490;13.410;2023-01-31T12:10:31;8.80;99.70
19256;DHT22;9762;52.490;13.410;2023-01-31T12:12:59;8.90;99.70
19256;DHT22;9762;52.490;13.410;2023-01-31T12:15:27;8.90;99.60
19256;DHT22;9762;52.490;13.410;2023-01-31T12:17:53;8.80;99.90
19256;DHT22;9762;52.490;13.410;2023-01-31T12:20:47;8.80;99.90
19256;DHT22;9762;52.490;13.410;2023-01-31T12:37:08;8.60;99.90
19256;DHT22;9762;52.490;13.410;2023-01-31T12:39:49;8.60;99.90
19256;DHT22;9762;52.490;13.410;2023-01-31T12:42:29;8.50;99.90
19256;DHT22;9762;52.490;13.410;2023-01-31T12:47:52;8.50;99.90
19256;DHT22;9762;52.490;13.410;2023-01-31T12:50:46;8.40;99.90
19256;DHT22;9762;52.490;13.410;2023-01-31T12:56:35;8.30;99.90
19256;DHT22;9762;52.490;13.410;2023-01-31T12:59:36;8.30;99.90
19256;DHT22;9762;52.490;13.410;2023-01-31T13:04:49;8.30;99.90
19256;DHT22;9762;52.490;13.410;2023-01-31T13:07:21;8.30;99.90
19256;DHT22;9762;52.490;13.410;2023-01-31T13:09:50;8.20;99.90
19256;DHT22;9762;52.490;13.410;2023-01-31T13:12:20;8.20;99.90
19256;DHT22;9762;52.490;13.410;2023-01-31T13:17:32;8.20;99.90
19256;DHT22;9762;52.490;13.410;2023-01-31T13:20:20;8.10;99.90
19256;DHT22;9762;52.490;13.410;2023-01-31T13:22:53;8.10;99.90
19256;DHT22;9762;52.490;13.410;2023-01-31T13:25:39;8.10;99.90
19256;DHT22;9762;52.490;13.410;2023-01-31T13:28:23;8.00;99.90
19256;DHT22;9762;52.490;13.410;2023-01-31T13:31:00;8.00;99.90
19256;DHT22;9762;52.490;13.410;2023-01-31T13:33:51;8.10;99.90
19256;DHT22;9762;52.490;13.410;2023-01-31T13:36:41;8.10;99.90
19256;DHT22;9762;52.490;13.410;2023-01-31T13:39:28;8.10;99.90
19256;DHT22;9762;52.490;13.410;2023-01-31T13:41:54;8.00;99.90
19256;DHT22;9762;52.490;13.410;2023-01-31T13:44:20;8.00;99.90
19256;DHT22;9762;52.490;13.410;2023-01-31T13:51:54;8.00;99.90
19256;DHT22;9762;52.490;13.410;2023-01-31T13:56:53;8.00;99.90
19256;DHT22;9762;52.490;13.410;2023-01-31T13:59:25;8.00;99.90
19256;DHT22;9762;52.490;13.410;2023-01-31T14:01:53;8.00;99.90
19256;DHT22;9762;52.490;13.410;2023-01-31T14:04:25;8.00;99.90
19256;DHT22;9762;52.490;13.410;2023-01-31T14:09:34;8.00;99.90
19256;DHT22;9762;52.490;13.410;2023-01-31T14:14:46;8.00;99.90
19256;DHT22;9762;52.490;13.410;2023-01-31T14:22:29;7.90;99.90
19256;DHT22;9762;52.490;13.410;2023-01-31T14:32:39;7.80;99.90
19256;DHT22;9762;52.490;13.410;2023-01-31T14:59:44;8.00;99.90
19256;DHT22;9762;52.490;13.410;2023-01-31T15:05:04;8.00;99.90
19256;DHT22;9762;52.490;13.410;2023-01-31T15:07:31;8.00;99.90
19256;DHT22;9762;52.490;13.410;2023-01-31T15:09:57;8.10;99.90
19256;DHT22;9762;52.490;13.410;2023-01-31T15:12:53;8.10;99.90
19256;DHT22;9762;52.490;13.410;2023-01-31T15:15:34;8.10;99.90
19256;DHT22;9762;52.490;13.410;2023-01-31T15:18:15;8.10;99.90
19256;DHT22;9762;52.490;13.410;2023-01-31T15:20:46;8.10;99.90
19256;DHT22;9762;52.490;13.410;2023-01-31T15:23:34;8.20;99.90
19256;DHT22;9762;52.490;13.410;2023-01-31T15:26:01;8.20;99.90
19256;DHT22;9762;52.490;13.410;2023-01-31T15:28:33;8.20;99.90
19256;DHT22;9762;52.490;13.410;2023-01-31T15:31:03;8.20;99.90
19256;DHT22;9762;52.490;13.410;2023-01-31T15:33:33;8.20;99.90
19256;DHT22;9762;52.490;13.410;2023-01-31T15:36:06;8.10;99.90
19256;DHT22;9762;52.490;13.410;2023-01-31T15:43:43;8.20;99.90
19256;DHT22;9762;52.490;13.410;2023-01-31T15:48:48;8.30;99.90
19256;DHT22;9762;52.490;13.410;2023-01-31T15:51:15;8.20;99.90
19256;DHT22;9762;52.490;13.410;2023-01-31T15:53:41;8.20;99.90
19256;DHT22;9762;52.490;13.410;2023-01-31T15:56:14;8.20;99.90
19256;DHT22;9762;52.490;13.410;2023-01-31T15:58:44;8.20;99.90
19256;DHT22;9762;52.490;13.410;2023-01-31T16:01:14;8.10;99.90
19256;DHT22;9762;52.490;13.410;2023-01-31T16:03:52;8.10;99.90
19256;DHT22;9762;52.490;13.410;2023-01-31T16:06:34;8.10;99.90
19256;DHT22;9762;52.490;13.410;2023-01-31T16:09:02;8.10;99.90
19256;DHT22;9762;52.490;13.410;2023-01-31T16:11:30;8.10;99.90
19256;DHT22;9762;52.490;13.410;2023-01-31T16:13:57;8.20;99.90
19256;DHT22;9762;52.490;13.410;2023-01-31T16:16:25;8.20;99.90
19256;DHT22;9762;52.490;13.410;2023-01-31T16:18:53;8.10;99.90
19256;DHT22;9762;52.490;13.410;2023-01-31T16:26:31;8.20;99.90
19256;DHT22;9762;52.490;13.410;2023-01-31T16:29:04;8.30;99.90
19256;DHT22;9762;52.490;13.410;2023-01-31T16:31:33;8.30;99.90
19256;DHT22;9762;52.490;13.410;2023-01-31T16:34:01;8.30;99.90
19256;DHT22;9762;52.490;13.410;2023-01-31T16:39:28;8.30;99.90
19256;DHT22;9762;52.490;13.410;2023-01-31T16:41:56;8.40;99.90
19256;DHT22;9762;52.490;13.410;2023-01-31T16:44:28;8.40;99.90
19256;DHT22;9762;52.490;13.410;2023-01-31T16:46:57;8.40;99.90
19256;DHT22;9762;52.490;13.410;2023-01-31T16:49:31;8.40;99.90
19256;DHT22;9762;52.490;13.410;2023-01-31T16:52:25;8.50;99.90
19256;DHT22;9762;52.490;13.410;2023-01-31T16:54:53;8.50;99.90
19256;DHT22;9762;52.490;13.410;2023-01-31T16:57:34;8.50;99.90
19256;DHT22;9762;52.490;13.410;2023-01-31T17:00:46;8.50;99.90
19256;DHT22;9762;52.490;13.410;2023-01-31T17:02:47;8.50;99.90
19256;DHT22;9762;52.490;13.410;2023-01-31T17:07:59;8.50;99.90
19256;DHT22;9762;52.490;13.410;2023-01-31T17:10:29;8.50;99.90
19256;DHT22;9762;52.490;13.410;2023-01-31T17:13:27;8.50;99.90
19256;DHT22;9762;52.490;13.410;2023-01-31T17:15:52;8.50;99.90
19256;DHT22;9762;52.490;13.410;2023-01-31T17:18:17;8.40;99.90
19256;DHT22;9762;52.490;13.410;2023-01-31T17:20:45;8.50;99.90
19256;DHT22;9762;52.490;13.410;2023-01-31T17:23:13;8.40;99.90
19256;DHT22;9762;52.490;13.410;2023-01-31T17:25:39;8.40;99.90
19256;DHT22;9762;52.490;13.410;2023-01-31T17:28:05;8.40;99.90
19256;DHT22;9762;52.490;13.410;2023-01-31T17:30:31;8.50;99.90
19256;DHT22;9762;52.490;13.410;2023-01-31T17:32:58;8.50;99.90
19256;DHT22;9762;52.490;13.410;2023-01-31T17:35:50;8.50;99.90
19256;DHT22;9762;52.490;13.410;2023-01-31T17:38:16;8.50;99.90
19256;DHT22;9762;52.490;13.410;2023-01-31T17:40:42;8.50;99.90
19256;DHT22;9762;52.490;13.410;2023-01-31T17:43:17;8.50;99.90
19256;DHT22;9762;52.490;13.410;2023-01-31T17:45:44;8.50;99.90
19256;DHT22;9762;52.490;13.410;2023-01-31T17:48:10;8.60;99.90
19256;DHT22;9762;52.490;13.410;2023-01-31T17:50:36;8.60;99.90
19256;DHT22;9762;52.490;13.410;2023-01-31T17:53:02;8.60;99.90
19256;DHT22;9762;52.490;13.410;2023-01-31T17:55:27;8.60;99.90
19256;DHT22;9762;52.490;13.410;2023-01-31T17:57:53;8.60;99.90
19256;DHT22;9762;52.490;13.410;2023-01-31T18:00:19;8.60;99.90
19256;DHT22;9762;52.490;13.410;2023-01-31T18:02:45;8.60;99.90
19256;DHT22;9762;52.490;13.410;2023-01-31T18:05:12;8.60;99.90
19256;DHT22;9762;52.490;13.410;2023-01-31T18:07:39;8.60;99.90
19256;DHT22;9762;52.490;13.410;2023-01-31T18:10:06;8.60;99.90
19256;DHT22;9762;52.490;13.410;2023-01-31T18:12:32;8.60;99.90
19256;DHT22;9762;52.490;13.410;2023-01-31T18:14:58;8.60;99.90
19256;DHT22;9762;52.490;13.410;2023-01-31T18:17:24;8.60;99.90
19256;DHT22;9762;52.490;13.410;2023-01-31T18:19:50;8.60;99.90
19256;DHT22;9762;52.490;13.410;2023-01-31T18:22:15;8.60;99.90
19256;DHT22;9762;52.490;13.410;2023-01-31T18:24:42;8.60;99.90
19256;DHT22;9762;52.490;13.410;2023-01-31T18:27:09;8.60;99.90
19256;DHT22;9762;52.490;13.410;2023-01-31T18:29:42;8.60;99.90
19256;DHT22;9762;52.490;13.410;2023-01-31T18:32:07;8.70;99.90
19256;DHT22;9762;52.490;13.410;2023-01-31T18:34:34;8.70;99.90
19256;DHT22;9762;52.490;13.410;2023-01-31T18:37:02;8.70;99.90
19256;DHT22;9762;52.490;13.410;2023-01-31T18:39:31;8.70;99.90
19256;DHT22;9762;52.490;13.410;2023-01-31T18:41:57;8.80;99.90
19256;DHT22;9762;52.490;13.410;2023-01-31T18:44:23;8.80;99.90
19256;DHT22;9762;52.490;13.410;2023-01-31T18:46:49;8.80;99.90